createdAt,value
2022-08-27T00:01:15.690Z,8.40
2022-08-27T00:03:43.776Z,7.75
2022-08-27T00:06:13.350Z,8.35
2022-08-27T00:08:42.125Z,7.88
2022-08-27T00:11:12.846Z,7.60
2022-08-27T00:13:40.929Z,7.25
2022-08-27T00:16:10.486Z,8.48
2022-08-27T00:18:39.597Z,8.30
2022-08-27T00:21:07.678Z,7.47
2022-08-27T00:23:35.516Z,7.78
2022-08-27T00:26:03.925Z,7.40
2022-08-27T00:28:34.000Z,7.68
2022-08-27T00:31:01.315Z,7.47
2022-08-27T00:33:29.141Z,7.43
2022-08-27T00:35:56.670Z,8.02
2022-08-27T00:38:26.409Z,7.95
2022-08-27T00:40:53.946Z,7.80
2022-08-27T00:43:23.075Z,7.57
2022-08-27T00:45:54.468Z,7.70
2022-08-27T00:48:24.520Z,8.65
2022-08-27T00:50:55.565Z,7.85
2022-08-27T00:53:25.581Z,7.75
2022-08-27T00:55:57.922Z,7.88
2022-08-27T00:58:30.013Z,7.43
2022-08-27T01:01:01.175Z,7.95
2022-08-27T01:03:28.965Z,8.25
2022-08-27T01:05:59.216Z,7.40
2022-08-27T01:08:28.347Z,7.90
2022-08-27T01:10:58.641Z,8.10
2022-08-27T01:13:53.465Z,8.45
2022-08-27T01:16:24.229Z,7.65
2022-08-27T01:18:52.315Z,8.15
2022-08-27T01:21:45.703Z,7.95
2022-08-27T01:24:27.959Z,8.18
2022-08-27T01:26:56.157Z,7.68
2022-08-27T01:29:23.699Z,7.68
2022-08-27T01:31:51.830Z,8.38
2022-08-27T01:34:20.806Z,7.45
2022-08-27T01:36:48.523Z,8.68
2022-08-27T01:39:16.473Z,8.63
2022-08-27T01:41:45.480Z,8.23
2022-08-27T01:44:13.380Z,8.15
2022-08-27T01:46:41.181Z,7.93
2022-08-27T01:49:11.549Z,7.68
2022-08-27T01:51:38.679Z,8.98
2022-08-27T01:54:06.263Z,8.07
2022-08-27T01:56:34.988Z,7.85
2022-08-27T01:59:04.497Z,8.07
2022-08-27T02:01:32.316Z,8.35
2022-08-27T02:04:00.170Z,7.85
2022-08-27T02:06:28.050Z,7.75
2022-08-27T02:08:55.535Z,8.70
2022-08-27T02:11:23.458Z,7.90
2022-08-27T02:13:51.513Z,7.78
2022-08-27T02:16:21.691Z,8.63
2022-08-27T02:18:49.240Z,8.23
2022-08-27T02:21:17.340Z,8.43
2022-08-27T02:23:45.101Z,8.57
2022-08-27T02:26:13.287Z,8.63
2022-08-27T02:28:41.487Z,8.63
2022-08-27T02:31:09.656Z,8.77
2022-08-27T02:33:39.688Z,8.30
2022-08-27T02:36:08.887Z,8.05
2022-08-27T02:38:37.274Z,8.57
2022-08-27T02:41:04.576Z,9.07
2022-08-27T02:43:32.378Z,9.00
2022-08-27T02:46:03.096Z,9.32
2022-08-27T02:48:31.054Z,8.75
2022-08-27T02:51:00.739Z,9.00
2022-08-27T02:53:28.346Z,8.80
2022-08-27T02:55:55.708Z,8.98
2022-08-27T02:58:23.247Z,7.88
2022-08-27T03:00:50.726Z,8.02
2022-08-27T03:03:18.646Z,8.07
2022-08-27T03:05:46.743Z,8.05
2022-08-27T03:08:16.607Z,8.20
2022-08-27T03:10:44.701Z,8.57
2022-08-27T03:13:12.184Z,8.25
2022-08-27T03:15:39.594Z,7.93
2022-08-27T03:18:06.888Z,9.02
2022-08-27T03:20:39.248Z,8.48
2022-08-27T03:23:07.691Z,8.80
2022-08-27T03:25:38.426Z,8.48
2022-08-27T03:28:09.560Z,8.65
2022-08-27T03:30:53.067Z,8.32
2022-08-27T03:33:21.999Z,9.13
2022-08-27T03:35:51.819Z,9.30
2022-08-27T03:38:19.676Z,8.98
2022-08-27T03:40:51.100Z,9.10
2022-08-27T03:43:21.132Z,9.50
2022-08-27T03:45:57.075Z,9.32
2022-08-27T03:48:30.485Z,8.77
2022-08-27T03:50:59.125Z,9.73
2022-08-27T03:53:26.419Z,9.77
2022-08-27T03:55:55.208Z,9.95
2022-08-27T03:58:22.594Z,10.88
2022-08-27T04:00:50.404Z,9.65
2022-08-27T04:03:18.295Z,9.70
2022-08-27T04:05:46.467Z,10.55
2022-08-27T04:08:13.628Z,9.90
2022-08-27T04:10:41.743Z,9.63
2022-08-27T04:13:11.013Z,10.60
2022-08-27T04:15:43.202Z,10.43
2022-08-27T04:18:11.231Z,9.35
2022-08-27T04:20:38.861Z,8.60
2022-08-27T04:23:07.050Z,9.60
2022-08-27T04:25:34.970Z,9.40
2022-08-27T04:28:02.733Z,9.38
2022-08-27T04:30:31.843Z,9.30
2022-08-27T04:32:59.682Z,9.10
2022-08-27T04:35:27.533Z,9.27
2022-08-27T04:37:55.203Z,10.20
2022-08-27T04:40:22.639Z,9.25
2022-08-27T04:42:52.984Z,9.55
2022-08-27T04:45:20.799Z,9.25
2022-08-27T04:47:50.882Z,9.77
2022-08-27T04:50:18.449Z,9.25
2022-08-27T04:52:46.730Z,9.00
2022-08-27T04:55:15.986Z,10.07
2022-08-27T04:57:44.192Z,9.00
2022-08-27T05:00:12.667Z,9.55
2022-08-27T05:02:40.109Z,9.60
2022-08-27T05:05:15.445Z,9.68
2022-08-27T05:07:43.544Z,9.95
2022-08-27T05:10:11.040Z,9.95
2022-08-27T05:12:38.553Z,9.85
2022-08-27T05:15:07.412Z,10.57
2022-08-27T05:17:34.901Z,10.13
2022-08-27T05:20:02.784Z,8.95
2022-08-27T05:22:32.488Z,9.02
2022-08-27T05:25:00.657Z,9.43
2022-08-27T05:27:28.810Z,9.35
2022-08-27T05:29:56.351Z,9.38
2022-08-27T05:32:23.549Z,10.18
2022-08-27T05:34:51.145Z,9.50
2022-08-27T05:37:19.231Z,9.68
2022-08-27T05:39:49.440Z,9.48
2022-08-27T05:42:16.760Z,9.35
2022-08-27T05:44:45.229Z,10.27
2022-08-27T05:47:12.819Z,11.32
2022-08-27T05:49:40.345Z,9.73
2022-08-27T05:52:11.060Z,10.40
2022-08-27T05:54:39.253Z,10.00
2022-08-27T05:57:08.984Z,10.30
2022-08-27T05:59:36.811Z,10.20
2022-08-27T06:02:05.712Z,10.55
2022-08-27T06:04:33.110Z,10.73
2022-08-27T06:07:00.445Z,10.77
2022-08-27T06:09:28.957Z,10.40
2022-08-27T06:11:57.938Z,9.93
2022-08-27T06:14:27.937Z,10.07
2022-08-27T06:16:55.537Z,9.80
2022-08-27T06:19:23.696Z,10.52
2022-08-27T06:22:01.160Z,9.68
2022-08-27T06:24:38.738Z,10.48
2022-08-27T06:27:06.832Z,10.60
2022-08-27T06:29:36.518Z,9.40
2022-08-27T06:32:04.618Z,10.48
2022-08-27T06:34:31.875Z,9.60
2022-08-27T06:37:00.021Z,9.52
2022-08-27T06:39:27.831Z,9.13
2022-08-27T06:41:55.768Z,8.63
2022-08-27T06:44:23.210Z,8.25
2022-08-27T06:46:53.633Z,9.48
2022-08-27T06:49:21.797Z,8.68
2022-08-27T06:51:49.056Z,9.00
2022-08-27T06:54:17.147Z,8.93
2022-08-27T06:56:45.884Z,9.13
2022-08-27T06:59:17.475Z,8.75
2022-08-27T07:01:47.427Z,8.93
2022-08-27T07:04:19.077Z,8.80
2022-08-27T07:06:47.258Z,8.88
2022-08-27T07:09:16.171Z,8.80
2022-08-27T07:11:43.850Z,8.63
2022-08-27T07:14:11.674Z,9.15
2022-08-27T07:16:39.619Z,8.45
2022-08-27T07:19:09.007Z,9.52
2022-08-27T07:21:40.676Z,8.65
2022-08-27T07:24:08.848Z,9.27
2022-08-27T07:26:39.360Z,8.43
2022-08-27T07:29:09.613Z,8.20
2022-08-27T07:31:38.436Z,8.25
2022-08-27T07:34:06.876Z,8.20
2022-08-27T07:36:35.615Z,8.85
2022-08-27T07:39:06.081Z,8.10
2022-08-27T07:41:34.887Z,8.98
2022-08-27T07:44:03.699Z,8.98
2022-08-27T07:46:32.217Z,8.35
2022-08-27T07:48:59.777Z,8.52
2022-08-27T07:51:29.174Z,7.72
2022-08-27T07:53:57.258Z,8.13
2022-08-27T07:56:27.362Z,7.95
2022-08-27T07:58:55.867Z,8.00
2022-08-27T08:01:23.184Z,7.70
2022-08-27T08:03:51.233Z,7.85
2022-08-27T08:06:19.371Z,7.65
2022-08-27T08:08:47.569Z,7.60
2022-08-27T08:11:16.993Z,7.82
2022-08-27T08:13:46.424Z,9.10
2022-08-27T08:16:14.843Z,8.15
2022-08-27T08:18:42.394Z,7.10
2022-08-27T08:21:13.203Z,7.03
2022-08-27T08:23:42.291Z,6.97
2022-08-27T08:26:11.097Z,7.82
2022-08-27T08:28:38.961Z,6.90
2022-08-27T08:31:08.856Z,7.40
2022-08-27T08:33:36.363Z,7.80
2022-08-27T08:36:06.939Z,7.57
2022-08-27T08:38:35.037Z,7.95
2022-08-27T08:41:03.441Z,7.65
2022-08-27T08:43:35.183Z,7.47
2022-08-27T08:46:12.705Z,7.95
2022-08-27T08:48:46.599Z,7.07
2022-08-27T08:51:19.918Z,7.20
2022-08-27T08:53:53.474Z,7.13
2022-08-27T08:56:26.756Z,7.13
2022-08-27T08:59:00.057Z,6.80
2022-08-27T09:01:29.825Z,7.32
2022-08-27T09:04:00.962Z,7.30
2022-08-27T09:06:38.872Z,7.60
2022-08-27T09:09:20.192Z,6.95
2022-08-27T09:11:55.510Z,7.07
2022-08-27T09:14:34.237Z,7.10
2022-08-27T09:17:07.162Z,7.22
2022-08-27T09:19:39.221Z,7.15
2022-08-27T09:22:17.091Z,6.78
2022-08-27T09:24:53.429Z,7.13
2022-08-27T09:27:21.766Z,7.18
2022-08-27T09:29:52.179Z,7.38
2022-08-27T09:32:26.732Z,6.32
2022-08-27T09:34:58.905Z,6.38
2022-08-27T09:37:34.639Z,7.28
2022-08-27T09:40:13.527Z,6.38
2022-08-27T09:42:53.729Z,6.22
2022-08-27T09:45:24.023Z,6.25
2022-08-27T09:47:55.046Z,6.38
2022-08-27T09:50:24.419Z,6.40
2022-08-27T09:52:54.076Z,6.85
2022-08-27T09:55:39.671Z,7.00
2022-08-27T09:58:16.820Z,6.32
2022-08-27T10:00:44.349Z,6.55
2022-08-27T10:03:13.644Z,6.43
2022-08-27T10:05:48.506Z,6.13
2022-08-27T10:10:54.891Z,6.00
2022-08-27T10:13:27.868Z,6.50
2022-08-27T10:16:08.556Z,6.32
2022-08-27T10:18:48.522Z,6.50
2022-08-27T10:21:23.480Z,6.45
2022-08-27T10:24:15.493Z,6.28
2022-08-27T10:26:51.289Z,6.45
2022-08-27T10:29:28.547Z,6.07
2022-08-27T10:32:06.849Z,6.30
2022-08-27T10:34:44.635Z,5.65
2022-08-27T10:37:36.877Z,6.35
2022-08-27T10:40:16.592Z,5.35
2022-08-27T10:42:52.035Z,6.40
2022-08-27T10:45:37.815Z,6.10
2022-08-27T10:48:15.863Z,6.20
2022-08-27T10:50:49.782Z,5.78
2022-08-27T10:53:26.893Z,6.28
2022-08-27T10:56:05.008Z,6.97
2022-08-27T10:58:45.956Z,6.65
2022-08-27T11:01:19.655Z,6.10
2022-08-27T11:03:51.071Z,6.10
2022-08-27T11:06:26.898Z,5.20
2022-08-27T11:08:59.479Z,6.28
2022-08-27T11:12:12.899Z,5.30
2022-08-27T11:14:29.612Z,4.68
2022-08-27T11:17:03.870Z,5.00
2022-08-27T11:19:43.534Z,5.40
2022-08-27T11:22:26.471Z,5.28
2022-08-27T11:24:59.994Z,5.07
2022-08-27T11:27:32.039Z,5.47
2022-08-27T11:30:06.698Z,5.43
2022-08-27T11:35:14.055Z,5.07
2022-08-27T11:38:06.288Z,5.10
2022-08-27T11:40:49.787Z,5.35
2022-08-27T11:43:20.860Z,5.17
2022-08-27T11:45:59.185Z,5.50
2022-08-27T11:48:29.461Z,5.32
2022-08-27T11:51:00.335Z,5.55
2022-08-27T11:53:33.302Z,4.72
2022-08-27T11:56:11.969Z,5.00
2022-08-27T11:58:52.583Z,5.07
2022-08-27T12:01:26.867Z,4.93
2022-08-27T12:04:01.528Z,4.97
2022-08-27T12:09:16.654Z,5.13
2022-08-27T12:11:56.526Z,5.68
2022-08-27T12:14:39.636Z,5.70
2022-08-27T12:17:19.233Z,5.35
2022-08-27T12:19:59.854Z,5.25
2022-08-27T12:22:45.625Z,5.60
2022-08-27T12:25:22.054Z,5.07
2022-08-27T12:27:56.810Z,5.30
2022-08-27T12:33:00.396Z,5.47
2022-08-27T12:35:32.368Z,6.20
2022-08-27T12:38:12.777Z,6.78
2022-08-27T12:40:47.524Z,5.50
2022-08-27T12:43:19.871Z,6.25
2022-08-27T12:45:50.274Z,6.68
2022-08-27T12:48:22.566Z,6.78
2022-08-27T12:50:55.231Z,6.75
2022-08-27T12:53:41.868Z,7.22
2022-08-27T12:56:41.769Z,5.70
2022-08-27T12:59:30.163Z,6.32
2022-08-27T13:02:12.416Z,6.10
2022-08-27T13:04:42.741Z,6.78
2022-08-27T13:07:10.562Z,6.40
2022-08-27T13:09:40.778Z,6.53
2022-08-27T13:12:19.705Z,6.53
2022-08-27T13:14:54.131Z,5.95
2022-08-27T13:17:25.686Z,6.00
2022-08-27T13:19:58.600Z,6.82
2022-08-27T13:22:30.044Z,6.70
2022-08-27T13:24:58.961Z,5.88
2022-08-27T13:27:32.944Z,6.07
2022-08-27T13:30:09.453Z,5.90
2022-08-27T13:32:37.929Z,5.55
2022-08-27T13:35:07.919Z,5.15
2022-08-27T13:37:40.359Z,5.20
2022-08-27T13:40:09.492Z,5.55
2022-08-27T13:42:43.705Z,5.00
2022-08-27T13:45:12.760Z,5.22
2022-08-27T13:47:46.998Z,5.97
2022-08-27T13:50:21.625Z,6.53
2022-08-27T13:52:51.377Z,5.70
2022-08-27T13:55:18.581Z,6.03
2022-08-27T13:57:50.905Z,5.38
2022-08-27T14:00:23.900Z,4.65
2022-08-27T14:02:56.144Z,4.43
2022-08-27T14:05:30.443Z,4.20
2022-08-27T14:08:00.485Z,4.63
2022-08-27T14:10:40.807Z,4.20
2022-08-27T14:13:13.775Z,4.22
2022-08-27T14:15:43.910Z,4.93
2022-08-27T14:18:42.168Z,4.43
2022-08-27T14:21:13.560Z,5.35
2022-08-27T14:23:41.134Z,5.07
2022-08-27T14:26:08.797Z,4.40
2022-08-27T14:28:39.232Z,4.80
2022-08-27T14:31:07.084Z,4.90
2022-08-27T14:33:34.737Z,4.88
2022-08-27T14:36:02.445Z,4.45
2022-08-27T14:38:31.895Z,4.50
2022-08-27T14:40:59.684Z,4.70
2022-08-27T14:43:28.169Z,4.60
2022-08-27T14:45:58.238Z,4.80
2022-08-27T14:48:29.041Z,4.78
2022-08-27T14:50:58.412Z,4.50
2022-08-27T14:53:26.887Z,4.75
2022-08-27T14:55:55.072Z,4.50
2022-08-27T14:58:22.605Z,4.75
2022-08-27T15:00:50.579Z,4.93
2022-08-27T15:03:20.806Z,4.30
2022-08-27T15:05:48.685Z,4.65
2022-08-27T15:08:17.140Z,4.35
2022-08-27T15:10:45.335Z,4.18
2022-08-27T15:13:13.198Z,4.68
2022-08-27T15:15:41.049Z,4.82
2022-08-27T15:18:09.200Z,5.05
2022-08-27T15:20:38.034Z,4.90
2022-08-27T15:23:05.764Z,5.25
2022-08-27T15:25:34.310Z,5.10
2022-08-27T15:28:02.224Z,5.30
2022-08-27T15:30:30.218Z,5.10
2022-08-27T15:32:57.786Z,5.43
2022-08-27T15:35:27.581Z,5.90
2022-08-27T15:37:58.078Z,7.00
2022-08-27T15:40:27.832Z,6.25
2022-08-27T15:42:58.748Z,7.72
2022-08-27T15:45:27.772Z,7.88
2022-08-27T15:47:56.357Z,7.30
2022-08-27T15:50:24.187Z,7.25
2022-08-27T15:52:54.901Z,6.97
2022-08-27T15:55:26.386Z,7.63
2022-08-27T15:57:53.972Z,8.30
2022-08-27T16:00:24.306Z,8.30
2022-08-27T16:02:52.703Z,8.00
2022-08-27T16:05:20.844Z,7.60
2022-08-27T16:07:48.673Z,7.78
2022-08-27T16:10:16.173Z,7.78
2022-08-27T16:12:45.332Z,8.05
2022-08-27T16:15:13.818Z,7.93
2022-08-27T16:17:41.897Z,7.32
2022-08-27T16:20:13.627Z,7.13
2022-08-27T16:22:41.565Z,8.77
2022-08-27T16:25:09.916Z,7.55
2022-08-27T16:27:37.810Z,7.43
2022-08-27T16:30:10.094Z,6.70
2022-08-27T16:32:37.602Z,7.43
2022-08-27T16:35:06.116Z,7.70
2022-08-27T16:37:33.631Z,7.90
2022-08-27T16:40:01.461Z,7.07
2022-08-27T16:42:29.140Z,7.32
2022-08-27T16:44:56.501Z,7.45
2022-08-27T16:47:25.732Z,7.55
2022-08-27T16:49:52.642Z,6.68
2022-08-27T16:52:19.997Z,6.90
2022-08-27T16:54:47.294Z,7.20
2022-08-27T16:57:14.721Z,7.30
2022-08-27T16:59:41.866Z,7.00
2022-08-27T17:02:17.296Z,6.82
2022-08-27T17:04:58.434Z,7.20
2022-08-27T17:07:33.776Z,7.10
2022-08-27T17:10:05.593Z,7.65
2022-08-27T17:12:33.213Z,6.78
2022-08-27T17:15:00.463Z,7.20
2022-08-27T17:17:28.580Z,7.22
2022-08-27T17:19:57.447Z,7.22
2022-08-27T17:22:24.821Z,7.72
2022-08-27T17:24:52.280Z,7.30
2022-08-27T17:27:19.567Z,7.65
2022-08-27T17:29:46.753Z,7.40
2022-08-27T17:32:13.955Z,7.25
2022-08-27T17:34:41.759Z,7.57
2022-08-27T17:37:10.876Z,7.35
2022-08-27T17:39:38.131Z,7.55
2022-08-27T17:42:05.950Z,7.32
2022-08-27T17:44:36.335Z,7.65
2022-08-27T17:47:06.474Z,7.57
2022-08-27T17:49:34.654Z,8.13
2022-08-27T17:52:05.777Z,7.75
2022-08-27T17:54:38.267Z,8.30
2022-08-27T17:57:14.531Z,7.60
2022-08-27T17:59:42.085Z,7.60
2022-08-27T18:02:10.244Z,7.80
2022-08-27T18:04:38.441Z,8.55
2022-08-27T18:07:05.836Z,7.32
2022-08-27T18:09:35.126Z,8.10
2022-08-27T18:12:04.116Z,7.28
2022-08-27T18:14:32.246Z,7.28
2022-08-27T18:17:00.420Z,7.55
2022-08-27T18:19:27.608Z,6.88
2022-08-27T18:21:57.004Z,7.03
2022-08-27T18:24:24.540Z,6.65
2022-08-27T18:26:54.060Z,6.88
2022-08-27T18:29:21.472Z,6.50
2022-08-27T18:31:49.056Z,6.97
2022-08-27T18:34:20.660Z,7.20
2022-08-27T18:36:48.489Z,6.63
2022-08-27T18:39:16.029Z,6.60
2022-08-27T18:41:44.432Z,6.60
2022-08-27T18:44:17.530Z,7.13
2022-08-27T18:46:45.625Z,7.10
2022-08-27T18:49:13.141Z,7.10
2022-08-27T18:51:43.133Z,7.32
2022-08-27T18:54:11.361Z,6.30
2022-08-27T18:56:38.862Z,7.00
2022-08-27T18:59:05.887Z,8.98
2022-08-27T19:01:34.958Z,7.45
2022-08-27T19:04:03.923Z,7.50
2022-08-27T19:06:32.086Z,6.47
2022-08-27T19:08:59.368Z,7.18
2022-08-27T19:11:28.232Z,6.70
2022-08-27T19:13:56.026Z,7.00
2022-08-27T19:16:29.734Z,7.03
2022-08-27T19:18:58.701Z,7.15
2022-08-27T19:21:26.608Z,6.65
2022-08-27T19:23:53.971Z,6.28
2022-08-27T19:26:24.684Z,5.50
2022-08-27T19:28:52.621Z,5.82
2022-08-27T19:31:19.884Z,5.63
2022-08-27T19:33:47.398Z,5.43
2022-08-27T19:36:19.137Z,5.05
2022-08-27T19:38:50.128Z,5.75
2022-08-27T19:41:18.148Z,5.90
2022-08-27T19:43:46.173Z,5.65
2022-08-27T19:46:17.479Z,5.78
2022-08-27T19:48:45.752Z,5.43
2022-08-27T19:51:13.481Z,5.72
2022-08-27T19:53:43.892Z,5.40
2022-08-27T19:56:12.942Z,6.30
2022-08-27T19:58:40.829Z,6.97
2022-08-27T20:01:08.713Z,6.63
2022-08-27T20:03:36.543Z,7.00
2022-08-27T20:06:04.772Z,8.68
2022-08-27T20:08:32.690Z,7.32
2022-08-27T20:11:02.907Z,7.75
2022-08-27T20:13:33.339Z,7.63
2022-08-27T20:16:02.303Z,7.35
2022-08-27T20:18:29.987Z,7.47
2022-08-27T20:20:58.550Z,7.97
2022-08-27T20:23:33.938Z,8.02
2022-08-27T20:26:04.500Z,8.23
2022-08-27T20:28:40.210Z,7.85
2022-08-27T20:31:09.087Z,8.13
2022-08-27T20:33:36.839Z,8.18
2022-08-27T20:36:06.586Z,8.50
2022-08-27T20:38:34.069Z,8.98
2022-08-27T20:41:04.786Z,8.13
2022-08-27T20:43:32.966Z,8.30
2022-08-27T20:46:00.853Z,8.38
2022-08-27T20:48:28.342Z,9.10
2022-08-27T20:50:55.830Z,8.77
2022-08-27T20:53:23.194Z,8.38
2022-08-27T20:55:51.370Z,8.50
2022-08-27T20:58:20.496Z,9.25
2022-08-27T21:00:51.338Z,8.88
2022-08-27T21:03:19.199Z,9.45
2022-08-27T21:05:46.496Z,8.18
2022-08-27T21:08:14.659Z,8.80
2022-08-27T21:10:45.710Z,8.70
2022-08-27T21:13:12.860Z,8.88
2022-08-27T21:15:42.048Z,8.35
2022-08-27T21:18:09.912Z,8.30
2022-08-27T21:20:37.295Z,8.80
2022-08-27T21:23:05.164Z,8.45
2022-08-27T21:25:32.943Z,8.70
2022-08-27T21:28:00.466Z,8.30
2022-08-27T21:30:28.267Z,9.32
2022-08-27T21:32:57.107Z,8.40
2022-08-27T21:35:26.517Z,9.05
2022-08-27T21:37:54.493Z,8.52
2022-08-27T21:40:22.341Z,8.27
2022-08-27T21:42:50.908Z,8.25
2022-08-27T21:45:18.285Z,8.63
2022-08-27T21:47:47.744Z,8.32
2022-08-27T21:50:16.268Z,7.50
2022-08-27T21:52:43.378Z,8.27
2022-08-27T21:55:11.840Z,8.15
2022-08-27T21:57:39.408Z,7.53
2022-08-27T22:00:13.158Z,7.75
2022-08-27T22:02:40.875Z,7.97
2022-08-27T22:05:09.444Z,8.32
2022-08-27T22:07:38.408Z,7.97
2022-08-27T22:10:07.091Z,7.85
2022-08-27T22:12:34.171Z,8.18
2022-08-27T22:15:01.931Z,8.27
2022-08-27T22:17:29.008Z,8.70
2022-08-27T22:19:56.643Z,7.90
2022-08-27T22:22:23.997Z,8.10
2022-08-27T22:24:59.996Z,8.55
2022-08-27T22:27:27.752Z,8.13
2022-08-27T22:29:55.024Z,7.93
2022-08-27T22:32:22.181Z,8.48
2022-08-27T22:34:49.439Z,8.57
2022-08-27T22:37:16.820Z,8.40
2022-08-27T22:39:44.140Z,8.50
2022-08-27T22:42:17.119Z,8.18
2022-08-27T22:44:45.816Z,7.72
2022-08-27T22:47:13.516Z,8.57
2022-08-27T22:49:40.629Z,7.60
2022-08-27T22:52:07.927Z,8.00
2022-08-27T22:54:35.705Z,7.30
2022-08-27T22:57:03.903Z,7.47
2022-08-27T22:59:33.201Z,7.72
2022-08-27T23:02:02.537Z,7.63
2022-08-27T23:04:53.188Z,7.45
2022-08-27T23:07:18.226Z,8.02
2022-08-27T23:09:45.593Z,7.32
2022-08-27T23:12:12.976Z,7.47
2022-08-27T23:14:42.227Z,7.55
2022-08-27T23:17:09.575Z,7.95
2022-08-27T23:19:36.855Z,8.13
2022-08-27T23:22:07.110Z,7.55
2022-08-27T23:24:35.212Z,8.15
2022-08-27T23:27:02.595Z,7.28
2022-08-27T23:29:30.022Z,7.22
2022-08-27T23:31:58.867Z,7.07
2022-08-27T23:34:26.259Z,7.47
2022-08-27T23:36:53.658Z,8.68
2022-08-27T23:39:20.783Z,7.68
2022-08-27T23:41:48.288Z,7.63
2022-08-27T23:44:15.895Z,7.38
2022-08-27T23:46:43.860Z,7.30
2022-08-27T23:49:12.782Z,7.45
2022-08-27T23:51:39.695Z,7.32
2022-08-27T23:54:06.974Z,7.10
2022-08-27T23:56:34.748Z,6.60
2022-08-27T23:59:01.921Z,6.55
